Terminal Aerodrome Forecast
Issued by NWS

Home | Current Version | Previous Version | Text Only | Print | Product List | Glossary On
Versions: 1 2 3 4 5 6 7 8 9 10 11 12 13 14 15 16 17 18 19 20
000
FTUS46 KPDT 222300
TAFYKM
TAF
KYKM 222320Z 2300/2324 VRB05KT P6SM -RA OVC050
     FM230600 23008KT P6SM -SHRA SCT035 OVC050
     FM231200 27006KT P6SM -SHRA SCT040 OVC070
     FM232000 23010KT P6SM VCSH SCT050 BKN100=

USA.gov is the U.S. government's official web portal to all federal, state and local government web resources and services.